Last 24 Hours

Top Stn/Summit - 11,053ft

15 Minute Data | America/Los_Angeles
as of 5/8/26 1:34 PM PDT
Date & Time Temp (°F) WindChill (°F) RH (%) Dew Pt (°F) Wet Bulb (°F) Wind Spd (mph) Wind Spd Sonic (mph) Wind Dir (°) Wind Dir Sonic (°) Wind Gust (mph) Wind Gust Sonic (mph) Daily Min Temp (°F) Daily Max Temp (°F) Daily Max Wind (mph) Daily Max Gust Sonic (mph)
5/8/26 - 1330 44.2 35.2 40 21.7 35.8 16.5 16.3 SSW | 213 SW | 235 30.9 28.9 33.8 44.8 34.4 34.7
5/8/26 - 1315 44.3 35.0 39 20.8 35.6 21.2 21.2 SSW | 213 SW | 219 31.1 30.6 33.8 44.8 34.4 34.7
5/8/26 - 1300 43.7 33.9 39 20.3 35.1 21.0 21.3 SSW | 213 SW | 222 34.4 31.8 33.8 44.1 34.4 34.7
5/8/26 - 1245 43.1 33.6 39 19.9 34.7 19.0 19.3 SW | 215 SW | 226 30.0 29.1 33.8 43.6 34.0 34.7
5/8/26 - 1230 43.2 33.5 37 18.7 34.5 20.2 20.6 SSW | 213 SW | 224 32.1 31.5 33.8 43.6 34.0 34.7
5/8/26 - 1215 43.3 33.4 35 17.3 34.2 20.5 20.9 SSW | 211 SW | 219 33.1 33.1 33.8 43.6 34.0 34.7
5/8/26 - 1200 42.8 33.2 35 17.1 33.9 19.7 20.2 SSW | 208 SW | 221 30.1 29.5 33.8 43.0 34.0 34.7
5/8/26 - 1145 42.7 33.2 33 15.9 33.6 19.0 20.1 SW | 221 SW | 226 29.0 32.0 33.8 43.0 34.0 34.7
5/8/26 - 1130 41.9 32.1 32 14.4 32.8 19.6 20.5 SW | 232 SW | 225 28.4 29.1 33.8 43.0 34.0 34.7
5/8/26 - 1115 41.6 31.9 27 10.3 31.8 19.1 20.0 SW | 220 SW | 226 27.9 29.1 33.8 41.9 34.0 34.7
5/8/26 - 1100 41.2 31.0 27 9.5 31.4 20.8 21.0 SSW | 210 SW | 223 29.3 30.0 33.8 41.6 34.0 34.7
5/8/26 - 1045 40.8 30.2 28 9.9 31.2 22.0 23.6 SSW | 211 SW | 218 29.8 28.6 33.8 41.3 34.0 34.7
5/8/26 - 1030 40.0 28.8 31 11.8 31.1 23.8 26.3 SW | 218 SW | 219 31.2 31.1 33.8 40.3 34.0 34.7
5/8/26 - 1015 39.6 28.4 33 12.7 31.1 24.2 26.7 SW | 217 SW | 218 30.5 29.8 33.8 40.0 34.0 34.7
5/8/26 - 1000 39.3 28.2 33 12.9 30.9 23.0 25.6 SSW | 211 SW | 218 29.8 30.0 33.8 39.8 34.0 34.7
5/8/26 - 0945 39.2 28.2 33 12.4 30.8 22.4 26.0 SSW | 212 SW | 216 29.3 29.1 33.8 39.8 34.0 34.7
5/8/26 - 0930 38.9 27.8 32 11.2 30.4 21.9 25.2 SSW | 213 SW | 218 30.0 29.1 33.8 39.8 34.0 34.7
5/8/26 - 0915 38.5 27.2 32 11.3 30.1 22.6 26.0 SW | 216 SW | 219 29.3 29.8 33.8 39.8 34.0 34.7
5/8/26 - 0900 39.2 28.4 31 11.2 30.5 21.0 24.8 SSW | 210 SW | 218 27.7 27.1 33.8 39.8 34.0 34.7
5/8/26 - 0845 38.9 28.1 29 9.4 30.0 21.4 25.1 SSW | 210 SW | 216 27.4 27.5 33.8 39.5 34.0 34.7
5/8/26 - 0830 38.0 26.9 31 9.8 29.5 21.4 24.7 SW | 214 SW | 220 26.8 26.8 33.8 38.5 34.0 34.7
5/8/26 - 0815 37.8 26.5 29 8.7 29.2 22.1 25.9 SSW | 213 SW | 219 27.7 28.9 33.8 38.2 34.0 34.7
5/8/26 - 0800 37.7 26.0 30 8.9 29.2 22.8 26.6 SSW | 213 SW | 217 30.0 30.2 33.8 38.0 34.0 34.7
5/8/26 - 0745 36.8 24.6 34 10.8 29.0 24.2 27.7 SW | 222 SW | 220 30.6 30.4 33.8 38.0 34.0 34.7
5/8/26 - 0730 36.5 24.2 36 11.9 29.0 24.0 27.2 SW | 224 SW | 220 29.9 30.0 33.8 38.0 34.0 34.7
5/8/26 - 0715 36.7 24.5 35 11.9 29.1 24.3 28.1 SSW | 213 SW | 218 30.3 30.4 33.8 38.0 34.0 34.7
5/8/26 - 0700 36.4 23.9 39 13.9 29.3 24.9 28.5 SW | 215 SW | 217 31.2 31.8 33.8 38.0 34.0 34.7
5/8/26 - 0645 36.4 24.1 42 15.4 29.6 23.7 27.2 SW | 217 SW | 218 30.7 29.8 33.8 38.0 34.0 34.7
5/8/26 - 0630 35.7 23.0 45 16.7 29.5 24.9 29.1 SW | 217 SW | 217 30.7 31.1 33.8 38.0 34.0 34.7
5/8/26 - 0615 35.0 22.1 50 18.2 29.4 24.7 29.5 SW | 216 SW | 215 31.1 32.0 33.8 38.0 34.0 34.7
5/8/26 - 0600 34.5 21.3 50 17.6 29.0 25.4 30.2 SW | 215 SSW | 213 31.8 32.2 33.8 38.0 34.0 34.7
5/8/26 - 0545 34.3 21.1 59 21.3 29.8 25.2 30.4 SW | 218 SW | 215 31.3 32.2 33.8 38.0 34.0 34.7
5/8/26 - 0530 34.5 21.3 47 16.2 28.7 25.2 29.9 SW | 221 SW | 218 32.0 34.7 33.8 38.0 34.0 34.7
5/8/26 - 0515 35.1 22.0 36 10.5 27.8 25.4 30.2 SW | 220 SW | 217 32.4 33.8 34.4 38.0 34.0 34.0
5/8/26 - 0500 34.9 21.6 42 14.3 28.5 26.2 30.1 SW | 225 SW | 220 33.1 34.0 34.4 38.0 34.0 34.0
5/8/26 - 0445 34.8 21.5 47 16.6 29.0 26.0 29.5 SW | 228 SW | 222 33.8 33.8 34.4 38.0 34.0 33.8
5/8/26 - 0430 35.6 22.5 41 14.0 28.9 25.7 28.4 SW | 228 SW | 222 34.0 33.1 35.0 38.0 34.0 33.1
5/8/26 - 0415 35.9 23.3 41 14.3 29.1 24.4 26.8 SW | 228 SW | 222 31.6 31.8 35.0 38.0 31.6 31.8
5/8/26 - 0400 35.7 23.0 49 18.4 29.9 23.7 25.7 SW | 230 SW | 223 31.6 30.9 35.0 38.0 31.6 30.9
5/8/26 - 0345 35.6 23.2 63 24.0 31.4 22.6 24.4 SW | 230 SW | 224 29.5 28.4 35.0 38.0 29.5 28.4
5/8/26 - 0330 35.7 23.6 64 24.5 31.6 21.6 23.4 SW | 231 SW | 224 28.1 28.2 35.0 38.0 29.3 28.2
5/8/26 - 0315 35.7 23.8 60 23.3 31.3 20.9 23.0 SW | 228 SW | 222 27.4 26.8 35.0 38.0 29.3 28.2
5/8/26 - 0300 35.9 23.9 61 23.6 31.4 21.2 23.7 SW | 222 SW | 218 28.7 27.1 35.0 38.0 29.3 28.2
5/8/26 - 0245 35.3 23.0 70 26.4 32.0 22.3 25.1 SW | 220 SW | 216 29.3 28.2 35.0 38.0 29.3 28.2
5/8/26 - 0230 35.6 24.0 71 27.2 32.4 20.0 22.8 SW | 222 SW | 218 26.2 26.2 35.2 38.0 26.2 26.2
5/8/26 - 0215 36.3 25.1 69 27.2 32.8 19.4 22.3 SW | 218 SW | 214 24.9 25.0 36.1 38.0 24.9 25.3
5/8/26 - 0200 36.7 25.7 70 27.7 33.2 19.2 22.8 SW | 219 SSW | 212 24.0 24.6 36.3 38.0 24.7 25.3
5/8/26 - 0145 37.1 26.2 66 26.9 33.2 19.4 23.7 SW | 223 SSW | 211 24.7 25.0 36.6 38.0 24.7 25.3
5/8/26 - 0130 37.2 26.5 68 27.6 33.5 18.5 22.6 SW | 225 SSW | 212 24.3 24.6 36.6 38.0 24.3 25.3
5/8/26 - 0115 37.5 26.9 75 30.1 34.6 18.0 21.9 WSW | 252 SW | 214 24.3 25.3 36.9 38.0 24.3 25.3
5/8/26 - 0100 38.5 29.4 75 31.4 35.6 13.4 17.0 W | 267 SSW | 205 20.0 21.2 36.9 44.0 38.2 36.9
5/8/26 - 0045 38.5 29.4 82 33.4 36.4 14.5 19.0 W | 277 SSW | 210 18.5 21.0 36.9 44.0 38.2 36.9
5/8/26 - 0030 38.5 29.6 84 34.1 36.7 14.7 19.4 WNW | 284 SSW | 212 18.0 20.8 36.9 44.0 38.2 36.9
5/8/26 - 0015 38.5 29.1 87 34.8 37.0 15.4 19.8 W | 274 SW | 214 19.8 22.4 36.9 44.0 38.2 36.9
5/8/26 - 0000 38.4 29.0 86 34.7 36.9 15.6 20.2 WSW | 250 SSW | 212 20.0 22.2 36.9 44.0 38.2 36.9
5/7/26 - 2345 37.1 26.4 91 34.6 36.1 18.2 22.6 SW | 220 SW | 217 23.3 24.4 36.9 44.0 38.2 36.9
5/7/26 - 2330 37.4 26.8 88 34.2 36.1 18.7 23.3 SW | 223 SW | 217 23.1 24.6 37.0 44.0 38.2 36.9
5/7/26 - 2315 37.8 27.1 88 34.6 36.5 19.5 24.3 WSW | 240 SW | 216 25.1 25.7 37.0 44.0 38.2 36.9
5/7/26 - 2300 37.9 27.2 90 35.2 36.8 19.2 24.2 NW | 307 SW | 214 24.4 26.0 37.0 44.0 38.2 36.9
5/7/26 - 2245 38.1 27.9 93 36.1 37.3 18.4 23.1 NW | 309 SSW | 213 22.5 25.0 37.0 44.0 38.2 36.9
5/7/26 - 2230 37.9 27.4 99 37.7 37.9 18.9 23.5 NW | 320 SSW | 213 23.7 25.7 37.0 44.0 38.2 36.9
5/7/26 - 2215 38.2 27.9 100 38.2 38.4 18.8 23.7 NNW | 327 SSW | 212 23.5 25.3 37.0 44.0 38.2 36.9
5/7/26 - 2200 38.1 27.7 100 38.2 38.3 19.0 23.7 WNW | 296 SW | 214 23.5 25.0 37.0 44.0 38.2 36.9
5/7/26 - 2145 38.4 27.9 100 38.4 38.5 19.3 23.7 WNW | 300 SSW | 213 24.7 26.6 37.0 44.0 38.2 36.9
5/7/26 - 2130 38.7 28.5 100 38.7 38.9 18.9 23.6 NW | 316 SSW | 212 23.3 26.2 37.0 44.0 38.2 36.9
5/7/26 - 2115 38.9 28.7 100 38.9 39.0 18.6 23.6 WNW | 294 SSW | 212 23.5 25.5 37.0 44.0 38.2 36.9
5/7/26 - 2100 38.7 28.4 100 38.7 38.9 19.1 23.6 SW | 230 SW | 214 24.0 27.1 37.0 44.0 38.2 36.9
5/7/26 - 2045 39.0 28.6 100 39.0 39.2 19.6 24.1 WSW | 254 SW | 215 25.0 27.1 37.0 44.0 38.2 36.9
5/7/26 - 2030 39.2 28.8 100 39.2 39.3 20.2 24.9 SW | 235 SW | 216 24.6 27.5 37.0 44.0 38.2 36.9
5/7/26 - 2015 39.2 28.7 100 39.2 39.4 20.4 25.2 W | 264 SW | 215 26.2 27.5 37.0 44.0 38.2 36.9
5/7/26 - 2000 39.3 28.8 100 39.3 39.5 20.3 25.2 SW | 234 SW | 215 26.3 28.0 37.0 44.0 38.2 36.9
5/7/26 - 1945 39.3 28.7 100 39.3 39.5 20.5 24.4 SW | 222 SW | 216 27.4 30.0 37.0 44.0 38.2 36.9
5/7/26 - 1930 39.4 28.5 99 39.2 39.5 21.8 24.6 SW | 221 SW | 217 29.0 29.3 37.0 44.0 38.2 36.9
5/7/26 - 1915 39.3 28.2 97 38.6 39.1 22.9 27.1 SW | 223 SW | 218 30.4 32.7 37.0 44.0 38.2 36.9
5/7/26 - 1900 40.2 29.1 92 38.1 39.4 23.8 26.9 SW | 226 SW | 220 32.4 31.8 37.0 44.0 38.2 36.9
5/7/26 - 1845 40.0 28.6 91 37.5 39.0 24.9 28.0 SW | 224 SW | 220 33.6 33.8 37.0 44.0 38.2 36.9
5/7/26 - 1830 40.1 28.6 88 37.0 38.9 25.6 28.9 SW | 224 SW | 219 34.2 36.0 37.0 44.0 38.2 36.9
5/7/26 - 1815 40.5 29.1 87 37.0 39.1 26.0 29.1 SW | 222 SW | 217 33.6 34.0 37.0 44.0 38.2 36.9
5/7/26 - 1800 41.1 30.0 85 36.8 39.3 25.2 28.1 SW | 226 SW | 221 34.3 36.2 37.0 44.0 38.2 36.9
5/7/26 - 1745 41.2 30.1 84 36.7 39.4 25.8 27.5 SW | 226 SW | 223 35.4 35.6 37.0 44.0 38.2 36.9
5/7/26 - 1730 41.6 30.4 81 36.1 39.3 26.4 28.5 SW | 222 SW | 218 37.0 36.0 37.0 44.0 38.2 36.9
5/7/26 - 1715 41.6 30.2 80 35.9 39.2 27.1 29.6 SW | 222 SW | 217 37.3 36.7 37.0 44.0 38.2 36.9
5/7/26 - 1700 42.4 31.5 77 35.6 39.5 26.0 27.6 SW | 216 SW | 221 36.4 36.0 37.0 44.0 38.2 36.9
5/7/26 - 1645 43.2 32.8 73 35.1 39.8 24.7 25.6 SW | 216 SW | 221 34.8 36.2 37.0 44.0 38.2 36.9
5/7/26 - 1630 43.4 33.4 72 34.9 39.8 22.1 22.1 SW | 216 SW | 228 33.9 32.4 37.0 44.0 38.2 36.9
5/7/26 - 1615 43.2 33.0 70 34.2 39.4 22.5 22.7 SW | 216 SW | 228 35.2 32.7 37.0 44.0 38.2 36.9
5/7/26 - 1600 42.9 32.3 70 34.0 39.2 24.7 25.5 SW | 216 SW | 224 36.3 34.4 37.0 44.0 38.2 36.9
5/7/26 - 1545 43.8 33.8 68 33.8 39.6 21.6 21.4 SW | 217 SW | 228 34.9 36.0 37.0 44.0 38.2 36.9
5/7/26 - 1530 43.3 33.4 67 33.2 39.1 22.4 23.2 SW | 217 SW | 226 32.8 35.3 37.0 43.9 38.2 36.9
5/7/26 - 1515 43.2 33.2 66 32.5 38.7 23.0 23.4 SW | 218 SW | 226 32.6 33.6 37.0 43.9 38.2 36.9
5/7/26 - 1500 43.6 33.6 64 32.1 38.8 22.5 23.4 SW | 218 SW | 218 34.3 31.8 37.0 43.9 38.2 36.9
5/7/26 - 1445 43.4 33.4 63 31.7 38.6 22.8 23.3 SW | 219 SW | 219 33.4 31.5 37.0 43.8 38.2 36.9
5/7/26 - 1430 43.2 33.0 63 31.3 38.3 21.9 22.3 SW | 219 SW | 225 35.7 33.1 37.0 43.8 38.2 36.9
5/7/26 - 1415 42.9 32.4 62 31.0 38.0 21.9 22.4 SW | 220 SW | 224 38.2 34.9 37.0 43.6 38.2 36.9
5/7/26 - 1400 42.9 32.4 61 30.3 37.8 23.9 24.5 SW | 221 SW | 222 36.6 34.4 37.0 43.6 36.6 36.9
5/7/26 - 1345 42.8 32.8 58 29.2 37.3 22.0 22.9 SW | 223 SW | 222 32.7 32.0 37.0 43.3 36.1 36.9
5/7/26 - 1330 42.7 32.8 57 28.4 37.0 22.0 22.8 SW | 224 SW | 223 30.9 31.5 37.0 43.1 36.1 36.9
Max 44.3 35.2 100 39.3 39.8 27.1 30.4 - - 38.2 36.7 37.0 44.8 38.2 36.9
Avg 39.2 28.3 63 25.9 34.7 21.7 24.5 - - 29.4 29.8 - - - -
Min 34.3 21.1 27 8.7 27.8 13.4 16.3 - - 18.0 20.8 33.8 38.0 24.3 25.3